CheckWX is a tool to help pilots better visualize weather data.  It is not intended as a substitute for an official pre-flight weather briefing.

22:00:27 UTC

KMLC TAF
Mc Alester Regional Airport
Mc Alester, Oklahoma, USA
KMLC 072320Z 0800/0824 VRB05KT P6SM SKC FM081200 00000KT 4SM BR SCT012 FM081400 16004KT P6SM SCT025 FM081600 20004KT P6SM BKN035

Jul-8@
00:00 UTC

Jul-8 @ 00:00 UTC

Jul-8@
12:00 UTC

Jul-8 @ 12:00 UTC

TAF KMLC 072320Z 0800/0824 VRB05KT P6SM SKC

Expired

Wind
  • Variable at 5 KTS
Cloud Levels
  • Clear skies

Jul-8@
12:00 UTC

Jul-8 @ 12:00 UTC

Jul-8@
14:00 UTC

Jul-8 @ 14:00 UTC

FM081200 00000KT 4SM BR SCT012

Expired

Conditions
Mist
Cloud Levels
  • Scattered at 1,200' AGL

Jul-8@
14:00 UTC

Jul-8 @ 14:00 UTC

Jul-8@
16:00 UTC

Jul-8 @ 16:00 UTC

FM081400 16004KT P6SM SCT025

Expired

Wind
  • 160° at 4 KTS
Cloud Levels
  • Scattered at 2,500' AGL

Jul-8@
16:00 UTC

Jul-8 @ 16:00 UTC

Jul-9@
00:00 UTC

Jul-9 @ 00:00 UTC

FM081600 20004KT P6SM BKN035

From

From Standard forecast or significant change

Wind
  • 200° at 4 KTS
Cloud Levels
  • Broken at 3,500' AGL